»·PEaware :: WAT380 KSEA-KBOI

WAT380 :: KSEA-KBOI

FLIGHT INFORMATION

Flight Status: Arrived
Operator:
Walker Air Transport
More flights by this operator :: More flights under this callsign
Pilot: Spencer M. (27733)
Aircraft: BEECH AIRCRAFT SUPER KING AIR COMMUTER
(BE20)
More flights by this aircraft type
Origin: KSEA Seattle-Tacoma Intl
United States
Destination: KBOI Boise Air Terminal/Gowen
United States
More flights between these airports :: More routes between these airports
Route: SUMMA2 SUMMA J54 BKE DEVLE KYAAN3
File this flight plan on PilotEdge
Remarks:
Altitude:
(Current/Filed)
25,000ft
Speed:
(Current/Filed)
240kts
Departed: 02-Nov-20 10:36 AM
Arrived: 02-Nov-20 12:07 PM
Distance/Time
Traveled:
346nm/1:31
Distance/Time
To Go:
Arrived

Flight Plot

Page will automatically refresh every two minutes.

Flight plan parsing failed; only flown route is shown


Map Options




Map Legend


Flown Route
Filed Route
Departure Airport
Arrival Airport
Navaid (VOR, NDB)
Fix

Horizontal Profiles

Position Reports

Time Latitude Longitude Heading Altitude Ground
Speed
02-Nov-20 10:16 47.448567 -122.301285 221 437ft 0kts
02-Nov-20 10:17 47.448567 -122.301285 221 437ft 0kts
02-Nov-20 10:18 47.448567 -122.301285 221 437ft 0kts
02-Nov-20 10:19 47.448567 -122.301285 221 437ft 0kts
02-Nov-20 10:20 47.448567 -122.301285 221 437ft 0kts
02-Nov-20 10:21 47.448567 -122.301285 221 437ft 0kts
02-Nov-20 10:22 47.448567 -122.301285 221 437ft 0kts
02-Nov-20 10:23 47.448567 -122.301285 221 437ft 0kts
02-Nov-20 10:24 47.448549 -122.301305 214 437ft 0kts
02-Nov-20 10:25 47.449074 -122.301384 323 437ft 8kts
02-Nov-20 10:26 47.450422 -122.305128 306 437ft 12kts
02-Nov-20 10:27 47.453576 -122.306217 0 437ft 14kts
02-Nov-20 10:27 47.457393 -122.306242 2 437ft 16kts
02-Nov-20 10:29 47.462649 -122.306127 0 437ft 14kts
02-Nov-20 10:29 47.463722 -122.306424 294 437ft 0kts
02-Nov-20 10:31 47.463722 -122.306424 294 437ft 0kts
02-Nov-20 10:31 47.463722 -122.306424 294 437ft 0kts
02-Nov-20 10:32 47.463722 -122.306424 294 437ft 0kts
02-Nov-20 10:33 47.463722 -122.306424 294 437ft 0kts
02-Nov-20 10:34 47.463113 -122.307694 187 437ft 15kts
02-Nov-20 10:35 47.432306 -122.307793 181 1086ft 169kts
02-Nov-20 10:36 47.377462 -122.309758 179 2533ft 207kts
02-Nov-20 10:37 47.320331 -122.309677 180 3954ft 204kts
02-Nov-20 10:38 47.271873 -122.281365 139 5544ft 199kts
02-Nov-20 10:39 47.228078 -122.237355 162 7075ft 189kts
02-Nov-20 10:40 47.178888 -122.212167 168 8480ft 186kts
02-Nov-20 10:41 47.129156 -122.191276 170 9869ft 188kts
02-Nov-20 10:42 47.078395 -122.170987 171 11268ft 196kts
02-Nov-20 10:43 47.024642 -122.149656 171 12661ft 203kts
02-Nov-20 10:44 46.970330 -122.128119 172 14033ft 201kts
02-Nov-20 10:45 46.916917 -122.106879 172 15386ft 196kts
02-Nov-20 10:46 46.865366 -122.086441 173 16778ft 194kts
02-Nov-20 10:47 46.813098 -122.065743 173 18187ft 195kts
02-Nov-20 10:48 46.761112 -122.045146 173 19589ft 192kts
02-Nov-20 10:49 46.710788 -122.025145 173 20981ft 185kts
02-Nov-20 10:50 46.662520 -122.005961 173 22370ft 175kts
02-Nov-20 10:51 46.617352 -121.978290 135 23412ft 198kts
02-Nov-20 10:52 46.587476 -121.909818 129 24418ft 201kts
02-Nov-20 10:53 46.558834 -121.838832 127 25089ft 216kts
02-Nov-20 10:54 46.526280 -121.757126 126 25088ft 248kts
02-Nov-20 10:55 46.490840 -121.667883 125 25085ft 261kts
02-Nov-20 10:56 46.454201 -121.575994 125 25084ft 265kts
02-Nov-20 10:57 46.417007 -121.483142 125 25018ft 269kts
02-Nov-20 10:58 46.379337 -121.389402 125 25001ft 268kts
02-Nov-20 10:59 46.341721 -121.296138 126 24997ft 267kts
02-Nov-20 11:00 46.304128 -121.203383 126 25004ft 269kts
02-Nov-20 11:01 46.266095 -121.109725 126 25008ft 270kts
02-Nov-20 11:02 46.228046 -121.016313 125 25031ft 271kts
02-Nov-20 11:03 46.189710 -120.922555 126 25041ft 271kts
02-Nov-20 11:04 46.151095 -120.828487 125 25002ft 273kts
02-Nov-20 11:05 46.112341 -120.734366 125 25011ft 271kts
02-Nov-20 11:06 46.073868 -120.641091 125 25011ft 272kts
02-Nov-20 11:07 46.035141 -120.547649 125 25013ft 272kts
02-Nov-20 11:08 45.996305 -120.454301 125 25010ft 272kts
02-Nov-20 11:09 45.957385 -120.361051 124 25008ft 273kts
02-Nov-20 11:10 45.918365 -120.267845 126 25008ft 270kts
02-Nov-20 11:11 45.879545 -120.175316 126 25010ft 271kts
02-Nov-20 11:12 45.840361 -120.082343 126 25010ft 272kts
02-Nov-20 11:13 45.801162 -119.989599 125 24995ft 272kts
02-Nov-20 11:14 45.761909 -119.897288 125 25001ft 273kts
02-Nov-20 11:15 45.722605 -119.804818 125 25001ft 270kts
02-Nov-20 11:16 45.683715 -119.713781 125 25001ft 268kts
02-Nov-20 11:17 45.644943 -119.623211 125 25001ft 267kts
02-Nov-20 11:18 45.606062 -119.532739 125 25001ft 266kts
02-Nov-20 11:19 45.567383 -119.443032 125 25000ft 266kts
02-Nov-20 11:20 45.528517 -119.353168 125 24997ft 266kts
02-Nov-20 11:21 45.489624 -119.263538 125 24993ft 265kts
02-Nov-20 11:22 45.450762 -119.174204 125 24991ft 265kts
02-Nov-20 11:23 45.411964 -119.085338 125 24990ft 264kts
02-Nov-20 11:24 45.373113 -118.996683 125 24989ft 264kts
02-Nov-20 11:25 45.334235 -118.908139 125 24986ft 264kts
02-Nov-20 11:26 45.295240 -118.819706 125 24982ft 264kts
02-Nov-20 11:27 45.256259 -118.731491 124 24997ft 263kts
02-Nov-20 11:28 45.217220 -118.643452 124 25000ft 263kts
02-Nov-20 11:29 45.178181 -118.555760 124 24999ft 263kts
02-Nov-20 11:30 45.139093 -118.468108 124 25000ft 263kts
02-Nov-20 11:31 45.099884 -118.380507 124 25003ft 263kts
02-Nov-20 11:32 45.060658 -118.293150 125 25010ft 263kts
02-Nov-20 11:33 45.021425 -118.206017 125 25019ft 262kts
02-Nov-20 11:34 44.982214 -118.119264 125 25028ft 262kts
02-Nov-20 11:35 44.943136 -118.033008 125 25040ft 261kts
02-Nov-20 11:36 44.903948 -117.946829 125 25053ft 261kts
02-Nov-20 11:37 44.864812 -117.860972 124 25069ft 260kts
02-Nov-20 11:38 44.816722 -117.787729 147 25075ft 256kts
02-Nov-20 11:39 44.756937 -117.732841 148 25073ft 256kts
02-Nov-20 11:40 44.697016 -117.679014 148 25073ft 256kts
02-Nov-20 11:41 44.637078 -117.625394 148 25073ft 256kts
02-Nov-20 11:42 44.576428 -117.571311 148 24562ft 262kts
02-Nov-20 11:43 44.513922 -117.515672 148 23573ft 269kts
02-Nov-20 11:44 44.450534 -117.459374 148 22581ft 272kts
02-Nov-20 11:45 44.386192 -117.402445 149 21591ft 276kts
02-Nov-20 11:46 44.320988 -117.344863 150 20240ft 277kts
02-Nov-20 11:47 44.255614 -117.287308 150 18727ft 279kts
02-Nov-20 11:48 44.192998 -117.223517 140 16926ft 283kts
02-Nov-20 11:49 44.135662 -117.148852 140 15122ft 283kts
02-Nov-20 11:50 44.078307 -117.073943 140 13316ft 284kts
02-Nov-20 11:51 44.021863 -117.000353 140 11235ft 271kts
02-Nov-20 11:52 43.970076 -116.931542 130 10119ft 250kts
02-Nov-20 11:53 43.931653 -116.854441 125 8702ft 237kts
02-Nov-20 11:54 43.896288 -116.781610 125 8057ft 217kts
02-Nov-20 11:55 43.863160 -116.713507 125 8052ft 211kts
02-Nov-20 11:56 43.831126 -116.648778 134 7927ft 197kts
02-Nov-20 11:57 43.788148 -116.601686 143 6823ft 200kts
02-Nov-20 11:58 43.744482 -116.556984 143 5088ft 186kts
02-Nov-20 11:59 43.708471 -116.518570 140 5106ft 163kts
02-Nov-20 12:00 43.671932 -116.472170 136 5002ft 195kts
02-Nov-20 12:01 43.636762 -116.423481 118 4701ft 179kts
02-Nov-20 12:02 43.611055 -116.365383 114 4303ft 173kts
02-Nov-20 12:03 43.595990 -116.319665 113 4042ft 126kts
02-Nov-20 12:04 43.582490 -116.279703 113 3458ft 109kts
02-Nov-20 12:05 43.570312 -116.243437 113 2912ft 94kts
02-Nov-20 12:06 43.564435 -116.226242 118 2875ft 26kts
02-Nov-20 12:08 43.564794 -116.231693 269 2875ft 19kts
02-Nov-20 12:09 43.564001 -116.234435 220 2875ft 0kts

Navigation Log

Ident Type
Flight plan parsing failed, navigation log unavailable